createdAt,value
2023-01-03T00:04:36.693Z,4.90
2023-01-03T00:09:38.698Z,4.90
2023-01-03T00:14:42.725Z,4.90
2023-01-03T00:19:47.022Z,4.80
2023-01-03T00:24:49.511Z,4.80
2023-01-03T00:29:51.334Z,4.80
2023-01-03T00:34:53.222Z,4.80
2023-01-03T00:39:55.036Z,4.80
2023-01-03T00:44:56.953Z,4.80
2023-01-03T00:49:58.981Z,4.70
2023-01-03T00:55:00.784Z,4.70
2023-01-03T01:00:02.723Z,4.70
2023-01-03T01:05:06.294Z,4.60
2023-01-03T01:10:08.489Z,4.60
2023-01-03T01:15:11.686Z,4.50
2023-01-03T01:20:13.836Z,4.50
2023-01-03T01:25:16.847Z,4.50
2023-01-03T01:30:19.666Z,4.50
2023-01-03T01:35:21.478Z,4.40
2023-01-03T01:40:23.363Z,4.40
2023-01-03T01:45:25.390Z,4.30
2023-01-03T01:50:50.149Z,4.30
2023-01-03T01:56:01.694Z,4.20
2023-01-03T02:01:05.105Z,4.20
2023-01-03T02:06:10.214Z,4.10
2023-01-03T02:11:14.806Z,4.10
2023-01-03T02:16:59.461Z,4.00
2023-01-03T02:22:10.671Z,4.00
2023-01-03T02:27:42.569Z,3.90
2023-01-03T02:32:50.496Z,3.90
2023-01-03T02:38:04.427Z,3.80
2023-01-03T02:43:17.452Z,3.80
2023-01-03T02:48:38.281Z,3.80
2023-01-03T02:53:44.403Z,3.80
2023-01-03T02:58:48.229Z,3.90
2023-01-03T03:03:50.882Z,4.00
2023-01-03T03:08:52.829Z,4.10
2023-01-03T03:14:22.518Z,4.10
2023-01-03T03:19:45.996Z,4.10
2023-01-03T03:24:50.391Z,4.10
2023-01-03T03:29:54.183Z,4.20
2023-01-03T03:34:56.507Z,4.20
2023-01-03T03:40:16.903Z,4.20
2023-01-03T03:45:25.598Z,4.20
2023-01-03T03:50:41.120Z,4.20
2023-01-03T03:56:06.901Z,4.20
2023-01-03T04:01:12.352Z,4.20
2023-01-03T04:06:20.998Z,4.20
2023-01-03T04:11:23.002Z,4.30
2023-01-03T04:16:24.883Z,4.30
2023-01-03T04:21:26.712Z,4.30
2023-01-03T04:26:28.546Z,4.40
2023-01-03T04:31:30.443Z,4.30
2023-01-03T04:36:32.328Z,4.40
2023-01-03T04:41:34.165Z,4.40
2023-01-03T04:46:37.843Z,4.40
2023-01-03T04:51:39.698Z,4.40
2023-01-03T04:56:41.521Z,4.40
2023-01-03T05:01:52.106Z,4.40
2023-01-03T05:06:55.257Z,4.40
2023-01-03T05:11:57.325Z,4.40
2023-01-03T05:16:59.466Z,4.40
2023-01-03T05:22:33.909Z,4.40
2023-01-03T05:27:35.739Z,4.40
2023-01-03T05:32:37.548Z,4.30
2023-01-03T05:37:39.342Z,4.20
2023-01-03T05:42:41.158Z,4.30
2023-01-03T05:47:42.967Z,4.20
2023-01-03T05:52:44.973Z,4.20
2023-01-03T05:57:47.541Z,4.20
2023-01-03T06:02:49.474Z,4.20
2023-01-03T06:07:51.365Z,4.20
2023-01-03T06:12:53.252Z,4.20
2023-01-03T06:17:55.168Z,4.10
2023-01-03T06:22:57.542Z,4.10
2023-01-03T06:27:59.363Z,4.10
2023-01-03T06:33:01.911Z,4.10
2023-01-03T06:38:03.733Z,4.10
2023-01-03T06:43:05.558Z,4.10
2023-01-03T06:48:27.972Z,4.10
2023-01-03T06:53:58.865Z,4.00
2023-01-03T06:59:00.886Z,4.00
2023-01-03T07:04:03.321Z,4.00
2023-01-03T07:09:05.187Z,4.00
2023-01-03T07:14:08.201Z,4.10
2023-01-03T07:19:13.541Z,4.20
2023-01-03T07:24:18.662Z,4.20
2023-01-03T07:29:20.829Z,4.30
2023-01-03T07:34:22.691Z,4.40
2023-01-03T07:39:24.489Z,4.30
2023-01-03T07:44:26.298Z,4.50
2023-01-03T07:49:28.102Z,4.60
2023-01-03T07:54:30.476Z,4.90
2023-01-03T07:59:32.387Z,5.10
2023-01-03T08:04:34.246Z,5.30
2023-01-03T08:09:54.790Z,5.40
2023-01-03T08:14:56.675Z,5.40
2023-01-03T08:19:58.534Z,5.40
2023-01-03T08:25:02.457Z,5.50
2023-01-03T08:30:04.921Z,5.80
2023-01-03T08:35:07.076Z,6.10
2023-01-03T08:40:11.304Z,6.40
2023-01-03T08:45:16.016Z,6.70
2023-01-03T08:50:18.001Z,6.70
2023-01-03T08:55:20.064Z,6.70
2023-01-03T09:00:21.965Z,6.90
2023-01-03T09:05:23.807Z,7.00
2023-01-03T09:10:26.099Z,7.20
2023-01-03T09:15:27.992Z,7.50
2023-01-03T09:20:29.852Z,7.90
2023-01-03T09:25:37.098Z,7.90
2023-01-03T09:30:39.744Z,7.90
2023-01-03T09:35:41.629Z,7.80
2023-01-03T09:40:45.250Z,7.70
2023-01-03T09:45:52.441Z,7.80
2023-01-03T09:51:18.347Z,7.90
2023-01-03T09:56:34.944Z,8.00
2023-01-03T10:02:18.256Z,8.00
2023-01-03T10:07:29.300Z,8.10
2023-01-03T10:12:47.343Z,8.40
2023-01-03T10:18:08.385Z,8.70
2023-01-03T10:23:10.592Z,8.90
2023-01-03T10:28:19.340Z,9.10
2023-01-03T10:33:34.961Z,9.10
2023-01-03T10:38:44.898Z,9.10
2023-01-03T10:44:00.007Z,9.10
2023-01-03T10:49:28.344Z,9.10
2023-01-03T10:54:46.450Z,9.10
2023-01-03T10:59:49.918Z,9.10
2023-01-03T11:05:12.452Z,9.20
2023-01-03T11:10:18.753Z,9.30
2023-01-03T11:15:25.920Z,9.30
2023-01-03T11:20:38.664Z,9.40
2023-01-03T11:25:50.769Z,9.40
2023-01-03T11:31:06.301Z,9.40
2023-01-03T11:36:22.567Z,9.40
2023-01-03T11:41:31.519Z,9.40
2023-01-03T11:46:51.292Z,9.40
2023-01-03T11:52:22.543Z,9.60
2023-01-03T11:57:56.284Z,9.60
2023-01-03T12:03:10.064Z,9.60
2023-01-03T12:08:12.048Z,9.60
2023-01-03T12:13:30.160Z,9.60
2023-01-03T12:18:55.158Z,9.60
2023-01-03T12:24:02.774Z,9.60
2023-01-03T12:29:05.913Z,9.60
2023-01-03T12:34:16.904Z,9.60
2023-01-03T12:39:43.306Z,9.50
2023-01-03T12:44:47.248Z,9.50
2023-01-03T12:49:56.909Z,9.50
2023-01-03T12:55:08.489Z,9.50
2023-01-03T13:00:23.588Z,9.40
2023-01-03T13:05:47.555Z,9.40
2023-01-03T13:10:52.894Z,9.40
2023-01-03T13:15:57.763Z,9.40
2023-01-03T13:20:59.763Z,9.40
2023-01-03T13:26:07.734Z,9.40
2023-01-03T13:31:14.309Z,9.30
2023-01-03T13:36:17.172Z,9.30
2023-01-03T13:41:39.375Z,9.30
2023-01-03T13:46:42.064Z,9.20
2023-01-03T13:51:43.907Z,9.20
2023-01-03T13:56:45.677Z,9.20
2023-01-03T14:02:06.333Z,9.20
2023-01-03T14:07:30.638Z,9.10
2023-01-03T14:13:07.975Z,9.10
2023-01-03T14:18:22.245Z,9.10
2023-01-03T14:23:59.151Z,9.00
2023-01-03T14:28:53.077Z,9.00
2023-01-03T14:33:59.880Z,8.90
2023-01-03T14:39:01.846Z,8.90
2023-01-03T14:44:03.671Z,8.80
2023-01-03T14:49:07.624Z,8.70
2023-01-03T14:54:14.985Z,8.70
2023-01-03T14:59:19.658Z,8.60
2023-01-03T15:04:24.453Z,8.60
2023-01-03T15:09:26.535Z,8.50
2023-01-03T15:14:39.561Z,8.50
2023-01-03T15:19:53.988Z,8.40
2023-01-03T15:25:04.498Z,8.40
2023-01-03T15:30:16.176Z,8.30
2023-01-03T15:35:20.480Z,8.30
2023-01-03T15:40:24.125Z,8.30
2023-01-03T15:45:26.537Z,8.20
2023-01-03T15:50:39.587Z,8.20
2023-01-03T15:55:41.457Z,8.20
2023-01-03T16:00:43.368Z,8.10
2023-01-03T16:05:45.666Z,8.10
2023-01-03T16:10:51.341Z,8.00
2023-01-03T16:15:53.486Z,8.10
2023-01-03T16:20:56.091Z,8.00
2023-01-03T16:25:58.063Z,8.10
2023-01-03T16:31:09.870Z,8.10
2023-01-03T16:36:39.769Z,8.10
2023-01-03T16:41:41.659Z,8.10
2023-01-03T16:46:44.833Z,8.10
2023-01-03T16:51:57.096Z,8.10
2023-01-03T16:56:59.819Z,8.10
2023-01-03T17:02:02.066Z,8.10
2023-01-03T17:07:04.392Z,8.00
2023-01-03T17:12:06.565Z,8.00
2023-01-03T17:17:16.079Z,7.90
2023-01-03T17:22:23.135Z,7.90
2023-01-03T17:27:33.164Z,7.90
2023-01-03T17:32:35.642Z,7.90
2023-01-03T17:38:05.750Z,7.90
2023-01-03T17:42:59.369Z,7.80
2023-01-03T17:48:19.855Z,7.80
2023-01-03T17:53:22.427Z,7.80
2023-01-03T17:58:35.665Z,7.80
2023-01-03T18:03:38.354Z,7.80
2023-01-03T18:08:40.986Z,7.80
2023-01-03T18:13:43.353Z,7.70
2023-01-03T18:18:45.389Z,7.70
2023-01-03T18:23:47.582Z,7.70
2023-01-03T18:28:49.437Z,7.70
2023-01-03T18:33:52.403Z,7.60
2023-01-03T18:39:17.317Z,7.70
2023-01-03T18:44:21.581Z,7.60
2023-01-03T18:49:23.543Z,7.60
2023-01-03T18:54:25.379Z,7.60
2023-01-03T18:59:27.587Z,7.60
2023-01-03T19:04:29.420Z,7.60
2023-01-03T19:09:32.768Z,7.60
2023-01-03T19:14:34.703Z,7.50
2023-01-03T19:19:36.522Z,7.50
2023-01-03T19:24:39.613Z,7.50
2023-01-03T19:29:41.688Z,7.50
2023-01-03T19:34:43.638Z,7.50
2023-01-03T19:39:45.590Z,7.40
2023-01-03T19:44:49.048Z,7.40
2023-01-03T19:49:50.974Z,7.30
2023-01-03T19:54:52.855Z,7.20
2023-01-03T19:59:57.125Z,7.10
2023-01-03T20:04:59.473Z,7.10
2023-01-03T20:10:02.513Z,7.00
2023-01-03T20:15:17.564Z,7.10
2023-01-03T20:20:20.641Z,7.10
2023-01-03T20:25:28.400Z,7.10
2023-01-03T20:30:31.988Z,7.20
2023-01-03T20:40:56.562Z,7.20
2023-01-03T20:45:59.335Z,7.20
2023-01-03T20:51:01.159Z,7.10
2023-01-03T20:56:03.251Z,7.00
2023-01-03T21:01:08.875Z,6.90
2023-01-03T21:06:22.924Z,6.80
2023-01-03T21:11:32.711Z,6.80
2023-01-03T21:16:43.828Z,6.70
2023-01-03T21:21:48.018Z,6.60
2023-01-03T21:26:49.950Z,6.50
2023-01-03T21:31:51.924Z,6.40
2023-01-03T21:36:53.934Z,6.30
2023-01-03T21:42:15.250Z,6.10
2023-01-03T21:47:18.920Z,6.10
2023-01-03T21:52:22.228Z,5.90
2023-01-03T21:57:32.080Z,5.80
2023-01-03T22:03:00.488Z,5.60
2023-01-03T22:08:03.320Z,5.60
2023-01-03T22:13:08.585Z,5.50
2023-01-03T22:18:13.583Z,5.50
2023-01-03T22:23:21.360Z,5.40
2023-01-03T22:28:26.236Z,5.30
2023-01-03T22:33:28.078Z,5.30
2023-01-03T22:38:30.050Z,5.20
2023-01-03T22:43:36.107Z,5.20
2023-01-03T22:48:38.072Z,5.10
2023-01-03T22:53:43.863Z,5.00
2023-01-03T22:58:46.461Z,4.80
2023-01-03T23:03:48.419Z,4.70
2023-01-03T23:08:51.367Z,4.50
2023-01-03T23:13:53.251Z,4.30
2023-01-03T23:18:55.291Z,4.20
2023-01-03T23:23:57.146Z,4.10
2023-01-03T23:29:00.284Z,4.10
2023-01-03T23:34:02.250Z,4.00
2023-01-03T23:39:07.236Z,4.00
2023-01-03T23:44:09.167Z,3.90
2023-01-03T23:49:12.656Z,3.70
2023-01-03T23:54:14.559Z,3.50
2023-01-03T23:59:16.448Z,3.40
